sensor_id;sensor_type;location;lat;lon;timestamp;P1;durP1;ratioP1;P2;durP2;ratioP2
20794;SDS011;28087;-33.874;151.240;2023-08-21T00:00:26;4.60;;;1.27;;
20794;SDS011;28087;-33.874;151.240;2023-08-21T00:03:33;1.73;;;0.90;;
20794;SDS011;28087;-33.874;151.240;2023-08-21T00:06:42;2.15;;;1.10;;
20794;SDS011;28087;-33.874;151.240;2023-08-21T00:09:49;5.20;;;1.00;;
20794;SDS011;28087;-33.874;151.240;2023-08-21T00:12:55;3.97;;;1.00;;
20794;SDS011;28087;-33.874;151.240;2023-08-21T00:16:03;2.67;;;1.10;;
20794;SDS011;28087;-33.874;151.240;2023-08-21T00:19:11;2.53;;;1.00;;
20794;SDS011;28087;-33.874;151.240;2023-08-21T00:22:20;4.18;;;1.30;;
20794;SDS011;28087;-33.874;151.240;2023-08-21T00:25:27;4.78;;;1.60;;
20794;SDS011;28087;-33.874;151.240;2023-08-21T00:28:35;5.80;;;1.67;;
20794;SDS011;28087;-33.874;151.240;2023-08-21T00:31:42;3.78;;;1.60;;
20794;SDS011;28087;-33.874;151.240;2023-08-21T00:34:50;4.38;;;1.80;;
20794;SDS011;28087;-33.874;151.240;2023-08-21T00:37:59;4.28;;;1.17;;
20794;SDS011;28087;-33.874;151.240;2023-08-21T00:41:07;4.05;;;1.30;;
20794;SDS011;28087;-33.874;151.240;2023-08-21T00:44:15;3.10;;;1.30;;
20794;SDS011;28087;-33.874;151.240;2023-08-21T00:47:24;8.65;;;1.50;;
20794;SDS011;28087;-33.874;151.240;2023-08-21T00:50:32;5.40;;;1.40;;
20794;SDS011;28087;-33.874;151.240;2023-08-21T00:53:42;5.78;;;1.50;;
20794;SDS011;28087;-33.874;151.240;2023-08-21T00:56:48;4.57;;;1.45;;
20794;SDS011;28087;-33.874;151.240;2023-08-21T00:59:56;5.93;;;1.30;;
20794;SDS011;28087;-33.874;151.240;2023-08-21T01:03:03;5.50;;;1.40;;
20794;SDS011;28087;-33.874;151.240;2023-08-21T01:06:12;2.45;;;1.10;;
20794;SDS011;28087;-33.874;151.240;2023-08-21T01:09:23;3.47;;;1.33;;
20794;SDS011;28087;-33.874;151.240;2023-08-21T01:12:36;3.83;;;1.15;;
20794;SDS011;28087;-33.874;151.240;2023-08-21T01:15:42;3.22;;;1.30;;
20794;SDS011;28087;-33.874;151.240;2023-08-21T01:18:51;5.50;;;1.30;;
20794;SDS011;28087;-33.874;151.240;2023-08-21T01:21:59;4.25;;;1.40;;
20794;SDS011;28087;-33.874;151.240;2023-08-21T01:25:08;4.28;;;1.13;;
20794;SDS011;28087;-33.874;151.240;2023-08-21T01:28:16;4.25;;;1.23;;
20794;SDS011;28087;-33.874;151.240;2023-08-21T01:31:23;6.05;;;1.38;;
20794;SDS011;28087;-33.874;151.240;2023-08-21T01:34:34;5.75;;;1.38;;
20794;SDS011;28087;-33.874;151.240;2023-08-21T01:37:42;2.83;;;1.17;;
20794;SDS011;28087;-33.874;151.240;2023-08-21T01:40:50;3.15;;;1.20;;
20794;SDS011;28087;-33.874;151.240;2023-08-21T01:43:56;3.67;;;1.10;;
20794;SDS011;28087;-33.874;151.240;2023-08-21T01:47:05;4.32;;;1.08;;
20794;SDS011;28087;-33.874;151.240;2023-08-21T01:50:11;6.53;;;1.20;;
20794;SDS011;28087;-33.874;151.240;2023-08-21T01:53:21;2.65;;;1.23;;
20794;SDS011;28087;-33.874;151.240;2023-08-21T01:56:28;3.15;;;1.20;;
20794;SDS011;28087;-33.874;151.240;2023-08-21T01:59:35;4.90;;;1.50;;
20794;SDS011;28087;-33.874;151.240;2023-08-21T02:02:54;3.30;;;0.90;;
20794;SDS011;28087;-33.874;151.240;2023-08-21T02:06:02;5.30;;;1.40;;
20794;SDS011;28087;-33.874;151.240;2023-08-21T02:09:08;3.88;;;1.10;;
20794;SDS011;28087;-33.874;151.240;2023-08-21T02:12:17;3.28;;;1.10;;
20794;SDS011;28087;-33.874;151.240;2023-08-21T02:15:29;3.38;;;1.30;;
20794;SDS011;28087;-33.874;151.240;2023-08-21T02:18:41;2.55;;;1.10;;
20794;SDS011;28087;-33.874;151.240;2023-08-21T02:21:49;2.03;;;1.00;;
20794;SDS011;28087;-33.874;151.240;2023-08-21T02:24:56;1.83;;;1.02;;
20794;SDS011;28087;-33.874;151.240;2023-08-21T02:28:05;2.53;;;0.98;;
20794;SDS011;28087;-33.874;151.240;2023-08-21T02:31:12;2.25;;;1.02;;
20794;SDS011;28087;-33.874;151.240;2023-08-21T02:34:20;6.10;;;1.10;;
20794;SDS011;28087;-33.874;151.240;2023-08-21T02:37:33;2.65;;;1.20;;
20794;SDS011;28087;-33.874;151.240;2023-08-21T02:40:41;4.53;;;1.40;;
20794;SDS011;28087;-33.874;151.240;2023-08-21T02:43:49;4.60;;;1.52;;
20794;SDS011;28087;-33.874;151.240;2023-08-21T02:46:56;3.15;;;1.30;;
20794;SDS011;28087;-33.874;151.240;2023-08-21T02:50:03;2.80;;;1.15;;
20794;SDS011;28087;-33.874;151.240;2023-08-21T02:53:09;3.03;;;1.30;;
20794;SDS011;28087;-33.874;151.240;2023-08-21T02:56:14;3.03;;;1.23;;
20794;SDS011;28087;-33.874;151.240;2023-08-21T02:59:23;2.78;;;1.30;;
20794;SDS011;28087;-33.874;151.240;2023-08-21T03:02:31;3.38;;;1.10;;
20794;SDS011;28087;-33.874;151.240;2023-08-21T03:05:40;3.85;;;1.40;;
20794;SDS011;28087;-33.874;151.240;2023-08-21T03:08:47;4.13;;;1.40;;
20794;SDS011;28087;-33.874;151.240;2023-08-21T03:11:54;7.63;;;1.73;;
20794;SDS011;28087;-33.874;151.240;2023-08-21T03:15:05;4.30;;;1.60;;
20794;SDS011;28087;-33.874;151.240;2023-08-21T03:18:14;3.47;;;1.40;;
20794;SDS011;28087;-33.874;151.240;2023-08-21T03:21:21;3.78;;;1.40;;
20794;SDS011;28087;-33.874;151.240;2023-08-21T03:24:30;6.35;;;1.50;;
20794;SDS011;28087;-33.874;151.240;2023-08-21T03:27:39;3.95;;;1.20;;
20794;SDS011;28087;-33.874;151.240;2023-08-21T03:30:49;5.78;;;1.35;;
20794;SDS011;28087;-33.874;151.240;2023-08-21T03:33:59;3.10;;;1.20;;
20794;SDS011;28087;-33.874;151.240;2023-08-21T03:37:12;5.45;;;1.38;;
20794;SDS011;28087;-33.874;151.240;2023-08-21T03:40:26;4.10;;;1.40;;
20794;SDS011;28087;-33.874;151.240;2023-08-21T03:43:33;3.75;;;1.27;;
20794;SDS011;28087;-33.874;151.240;2023-08-21T03:46:44;4.47;;;1.45;;
20794;SDS011;28087;-33.874;151.240;2023-08-21T03:50:04;4.82;;;1.40;;
20794;SDS011;28087;-33.874;151.240;2023-08-21T03:53:13;3.75;;;1.30;;
20794;SDS011;28087;-33.874;151.240;2023-08-21T03:56:20;3.58;;;1.35;;
20794;SDS011;28087;-33.874;151.240;2023-08-21T03:59:28;6.78;;;1.80;;
20794;SDS011;28087;-33.874;151.240;2023-08-21T04:02:37;4.00;;;1.40;;
20794;SDS011;28087;-33.874;151.240;2023-08-21T04:05:43;4.30;;;1.45;;
20794;SDS011;28087;-33.874;151.240;2023-08-21T04:08:49;4.80;;;1.80;;
20794;SDS011;28087;-33.874;151.240;2023-08-21T04:11:57;5.47;;;1.40;;
20794;SDS011;28087;-33.874;151.240;2023-08-21T04:15:08;5.93;;;1.58;;
20794;SDS011;28087;-33.874;151.240;2023-08-21T04:18:19;6.28;;;1.42;;
20794;SDS011;28087;-33.874;151.240;2023-08-21T04:21:29;5.30;;;1.80;;
20794;SDS011;28087;-33.874;151.240;2023-08-21T04:24:38;5.10;;;1.83;;
20794;SDS011;28087;-33.874;151.240;2023-08-21T04:27:43;3.63;;;1.70;;
20794;SDS011;28087;-33.874;151.240;2023-08-21T04:30:53;7.18;;;1.75;;
20794;SDS011;28087;-33.874;151.240;2023-08-21T04:34:05;5.72;;;1.50;;
20794;SDS011;28087;-33.874;151.240;2023-08-21T04:37:16;5.60;;;1.70;;
20794;SDS011;28087;-33.874;151.240;2023-08-21T04:40:25;5.55;;;1.60;;
20794;SDS011;28087;-33.874;151.240;2023-08-21T04:43:36;3.05;;;1.40;;
20794;SDS011;28087;-33.874;151.240;2023-08-21T04:46:42;3.80;;;1.42;;
20794;SDS011;28087;-33.874;151.240;2023-08-21T04:49:55;5.97;;;1.50;;
20794;SDS011;28087;-33.874;151.240;2023-08-21T04:53:03;3.50;;;1.55;;
20794;SDS011;28087;-33.874;151.240;2023-08-21T04:56:12;3.95;;;1.40;;
20794;SDS011;28087;-33.874;151.240;2023-08-21T04:59:24;6.25;;;1.45;;
20794;SDS011;28087;-33.874;151.240;2023-08-21T05:02:36;3.72;;;1.13;;
20794;SDS011;28087;-33.874;151.240;2023-08-21T05:05:55;3.35;;;1.20;;
20794;SDS011;28087;-33.874;151.240;2023-08-21T05:09:06;3.90;;;1.27;;
20794;SDS011;28087;-33.874;151.240;2023-08-21T05:12:16;5.22;;;1.20;;
20794;SDS011;28087;-33.874;151.240;2023-08-21T05:15:26;3.47;;;1.10;;
20794;SDS011;28087;-33.874;151.240;2023-08-21T05:18:33;5.25;;;1.45;;
20794;SDS011;28087;-33.874;151.240;2023-08-21T05:21:46;3.72;;;1.20;;
20794;SDS011;28087;-33.874;151.240;2023-08-21T05:24:53;3.88;;;1.38;;
20794;SDS011;28087;-33.874;151.240;2023-08-21T05:28:02;6.65;;;1.67;;
20794;SDS011;28087;-33.874;151.240;2023-08-21T05:31:11;8.30;;;2.08;;
20794;SDS011;28087;-33.874;151.240;2023-08-21T05:34:20;10.25;;;1.95;;
20794;SDS011;28087;-33.874;151.240;2023-08-21T05:37:29;5.53;;;2.00;;
20794;SDS011;28087;-33.874;151.240;2023-08-21T05:40:41;5.65;;;1.40;;
20794;SDS011;28087;-33.874;151.240;2023-08-21T05:43:51;14.80;;;1.90;;
20794;SDS011;28087;-33.874;151.240;2023-08-21T05:46:58;7.22;;;1.58;;
20794;SDS011;28087;-33.874;151.240;2023-08-21T05:50:07;3.35;;;1.20;;
20794;SDS011;28087;-33.874;151.240;2023-08-21T05:53:16;5.75;;;1.38;;
20794;SDS011;28087;-33.874;151.240;2023-08-21T05:56:23;4.05;;;1.25;;
20794;SDS011;28087;-33.874;151.240;2023-08-21T05:59:30;2.83;;;1.20;;
20794;SDS011;28087;-33.874;151.240;2023-08-21T06:02:44;4.45;;;1.20;;
20794;SDS011;28087;-33.874;151.240;2023-08-21T06:06:08;2.97;;;1.20;;
20794;SDS011;28087;-33.874;151.240;2023-08-21T06:09:17;2.85;;;1.20;;
20794;SDS011;28087;-33.874;151.240;2023-08-21T06:12:30;2.78;;;1.20;;
20794;SDS011;28087;-33.874;151.240;2023-08-21T06:15:42;3.17;;;1.20;;
20794;SDS011;28087;-33.874;151.240;2023-08-21T06:18:54;4.10;;;1.30;;
20794;SDS011;28087;-33.874;151.240;2023-08-21T06:22:05;3.28;;;1.30;;
20794;SDS011;28087;-33.874;151.240;2023-08-21T06:25:27;3.78;;;1.30;;
20794;SDS011;28087;-33.874;151.240;2023-08-21T06:28:46;3.35;;;1.20;;
20794;SDS011;28087;-33.874;151.240;2023-08-21T06:31:54;4.50;;;1.40;;
20794;SDS011;28087;-33.874;151.240;2023-08-21T06:35:06;4.05;;;1.25;;
20794;SDS011;28087;-33.874;151.240;2023-08-21T06:38:24;4.45;;;1.40;;
20794;SDS011;28087;-33.874;151.240;2023-08-21T06:41:34;6.20;;;1.60;;
20794;SDS011;28087;-33.874;151.240;2023-08-21T06:44:54;5.63;;;1.40;;
20794;SDS011;28087;-33.874;151.240;2023-08-21T06:48:05;5.85;;;1.27;;
20794;SDS011;28087;-33.874;151.240;2023-08-21T06:51:14;2.80;;;1.20;;
20794;SDS011;28087;-33.874;151.240;2023-08-21T06:54:31;3.75;;;1.30;;
20794;SDS011;28087;-33.874;151.240;2023-08-21T06:57:43;2.40;;;1.30;;
20794;SDS011;28087;-33.874;151.240;2023-08-21T07:00:52;2.75;;;1.40;;
20794;SDS011;28087;-33.874;151.240;2023-08-21T07:04:06;7.50;;;1.60;;
20794;SDS011;28087;-33.874;151.240;2023-08-21T07:07:15;4.70;;;1.58;;
20794;SDS011;28087;-33.874;151.240;2023-08-21T07:10:30;7.93;;;1.75;;
20794;SDS011;28087;-33.874;151.240;2023-08-21T07:14:03;4.22;;;1.60;;
20794;SDS011;28087;-33.874;151.240;2023-08-21T07:17:13;6.65;;;1.70;;
20794;SDS011;28087;-33.874;151.240;2023-08-21T07:20:20;4.93;;;1.70;;
20794;SDS011;28087;-33.874;151.240;2023-08-21T07:23:31;3.90;;;1.63;;
20794;SDS011;28087;-33.874;151.240;2023-08-21T07:26:38;4.72;;;1.50;;
20794;SDS011;28087;-33.874;151.240;2023-08-21T07:29:58;3.42;;;1.70;;
20794;SDS011;28087;-33.874;151.240;2023-08-21T07:33:04;3.53;;;1.70;;
20794;SDS011;28087;-33.874;151.240;2023-08-21T07:36:12;6.50;;;1.77;;
20794;SDS011;28087;-33.874;151.240;2023-08-21T07:39:20;5.53;;;1.80;;
20794;SDS011;28087;-33.874;151.240;2023-08-21T07:42:30;6.57;;;1.73;;
20794;SDS011;28087;-33.874;151.240;2023-08-21T07:45:40;10.93;;;2.35;;
20794;SDS011;28087;-33.874;151.240;2023-08-21T07:48:46;5.90;;;2.10;;
20794;SDS011;28087;-33.874;151.240;2023-08-21T07:51:54;9.35;;;1.90;;
20794;SDS011;28087;-33.874;151.240;2023-08-21T07:55:01;7.50;;;2.00;;
20794;SDS011;28087;-33.874;151.240;2023-08-21T07:58:10;5.95;;;2.10;;
20794;SDS011;28087;-33.874;151.240;2023-08-21T08:01:40;5.18;;;1.67;;
20794;SDS011;28087;-33.874;151.240;2023-08-21T08:04:50;5.47;;;1.70;;
20794;SDS011;28087;-33.874;151.240;2023-08-21T08:07:58;7.70;;;1.83;;
20794;SDS011;28087;-33.874;151.240;2023-08-21T08:11:05;5.30;;;1.70;;
20794;SDS011;28087;-33.874;151.240;2023-08-21T08:14:13;5.88;;;1.80;;
20794;SDS011;28087;-33.874;151.240;2023-08-21T08:17:21;5.28;;;2.15;;
20794;SDS011;28087;-33.874;151.240;2023-08-21T08:20:28;7.13;;;1.88;;
20794;SDS011;28087;-33.874;151.240;2023-08-21T08:23:28;9.75;;;2.20;;
20794;SDS011;28087;-33.874;151.240;2023-08-21T08:26:40;6.50;;;2.15;;
20794;SDS011;28087;-33.874;151.240;2023-08-21T08:29:47;4.05;;;1.92;;
20794;SDS011;28087;-33.874;151.240;2023-08-21T08:32:56;3.83;;;1.70;;
20794;SDS011;28087;-33.874;151.240;2023-08-21T08:36:03;6.63;;;1.45;;
20794;SDS011;28087;-33.874;151.240;2023-08-21T08:39:15;4.85;;;1.50;;
20794;SDS011;28087;-33.874;151.240;2023-08-21T08:42:35;5.88;;;1.55;;
20794;SDS011;28087;-33.874;151.240;2023-08-21T08:45:51;4.30;;;1.60;;
20794;SDS011;28087;-33.874;151.240;2023-08-21T08:49:08;3.85;;;1.50;;
20794;SDS011;28087;-33.874;151.240;2023-08-21T08:52:26;5.82;;;1.95;;
20794;SDS011;28087;-33.874;151.240;2023-08-21T08:55:33;9.27;;;2.28;;
20794;SDS011;28087;-33.874;151.240;2023-08-21T08:58:42;7.20;;;2.05;;
20794;SDS011;28087;-33.874;151.240;2023-08-21T09:01:48;6.55;;;2.22;;
20794;SDS011;28087;-33.874;151.240;2023-08-21T09:05:02;5.68;;;1.88;;
20794;SDS011;28087;-33.874;151.240;2023-08-21T09:08:13;5.45;;;1.83;;
20794;SDS011;28087;-33.874;151.240;2023-08-21T09:11:25;7.20;;;1.88;;
20794;SDS011;28087;-33.874;151.240;2023-08-21T09:14:34;5.28;;;2.10;;
20794;SDS011;28087;-33.874;151.240;2023-08-21T09:17:53;7.78;;;2.40;;
20794;SDS011;28087;-33.874;151.240;2023-08-21T09:21:05;4.55;;;2.33;;
20794;SDS011;28087;-33.874;151.240;2023-08-21T09:24:12;4.35;;;1.90;;
20794;SDS011;28087;-33.874;151.240;2023-08-21T09:27:21;6.68;;;2.50;;
20794;SDS011;28087;-33.874;151.240;2023-08-21T09:30:43;5.70;;;2.33;;
20794;SDS011;28087;-33.874;151.240;2023-08-21T09:33:57;6.75;;;2.22;;
20794;SDS011;28087;-33.874;151.240;2023-08-21T09:37:10;5.30;;;2.03;;
20794;SDS011;28087;-33.874;151.240;2023-08-21T09:40:18;6.40;;;2.08;;
20794;SDS011;28087;-33.874;151.240;2023-08-21T09:43:24;4.80;;;1.80;;
20794;SDS011;28087;-33.874;151.240;2023-08-21T09:46:31;5.68;;;2.08;;
20794;SDS011;28087;-33.874;151.240;2023-08-21T09:49:44;4.25;;;1.70;;
20794;SDS011;28087;-33.874;151.240;2023-08-21T09:53:02;4.05;;;1.80;;
20794;SDS011;28087;-33.874;151.240;2023-08-21T09:56:27;5.25;;;1.65;;
20794;SDS011;28087;-33.874;151.240;2023-08-21T09:59:36;4.47;;;1.80;;
20794;SDS011;28087;-33.874;151.240;2023-08-21T10:02:53;3.47;;;1.70;;
20794;SDS011;28087;-33.874;151.240;2023-08-21T10:06:03;4.22;;;1.67;;
20794;SDS011;28087;-33.874;151.240;2023-08-21T10:09:13;4.63;;;1.65;;
20794;SDS011;28087;-33.874;151.240;2023-08-21T10:12:19;4.22;;;1.50;;
20794;SDS011;28087;-33.874;151.240;2023-08-21T10:15:28;3.75;;;1.60;;
20794;SDS011;28087;-33.874;151.240;2023-08-21T10:18:35;4.03;;;1.45;;
20794;SDS011;28087;-33.874;151.240;2023-08-21T10:21:46;5.10;;;1.63;;
20794;SDS011;28087;-33.874;151.240;2023-08-21T10:25:01;3.53;;;1.40;;
20794;SDS011;28087;-33.874;151.240;2023-08-21T10:28:11;3.72;;;1.50;;
20794;SDS011;28087;-33.874;151.240;2023-08-21T10:34:51;5.10;;;1.55;;
20794;SDS011;28087;-33.874;151.240;2023-08-21T10:38:09;3.55;;;1.60;;
20794;SDS011;28087;-33.874;151.240;2023-08-21T10:41:19;4.57;;;1.52;;
20794;SDS011;28087;-33.874;151.240;2023-08-21T10:44:35;2.40;;;1.30;;
20794;SDS011;28087;-33.874;151.240;2023-08-21T10:47:45;3.95;;;1.40;;
20794;SDS011;28087;-33.874;151.240;2023-08-21T10:50:51;3.58;;;1.50;;
20794;SDS011;28087;-33.874;151.240;2023-08-21T10:54:08;6.20;;;1.30;;
20794;SDS011;28087;-33.874;151.240;2023-08-21T10:57:24;3.88;;;1.40;;
20794;SDS011;28087;-33.874;151.240;2023-08-21T11:00:37;3.65;;;1.40;;
20794;SDS011;28087;-33.874;151.240;2023-08-21T11:03:57;3.75;;;1.40;;
20794;SDS011;28087;-33.874;151.240;2023-08-21T11:07:08;4.22;;;1.50;;
20794;SDS011;28087;-33.874;151.240;2023-08-21T11:10:21;3.97;;;1.58;;
20794;SDS011;28087;-33.874;151.240;2023-08-21T11:13:33;4.80;;;1.80;;
20794;SDS011;28087;-33.874;151.240;2023-08-21T11:16:46;3.97;;;1.70;;
20794;SDS011;28087;-33.874;151.240;2023-08-21T11:19:56;3.28;;;1.80;;
20794;SDS011;28087;-33.874;151.240;2023-08-21T11:26:33;5.05;;;1.73;;
20794;SDS011;28087;-33.874;151.240;2023-08-21T11:29:42;3.28;;;1.83;;
20794;SDS011;28087;-33.874;151.240;2023-08-21T11:33:04;4.72;;;1.75;;
20794;SDS011;28087;-33.874;151.240;2023-08-21T11:36:12;5.40;;;2.17;;
20794;SDS011;28087;-33.874;151.240;2023-08-21T11:39:27;5.72;;;2.17;;
20794;SDS011;28087;-33.874;151.240;2023-08-21T11:42:49;5.47;;;2.00;;
20794;SDS011;28087;-33.874;151.240;2023-08-21T11:46:00;4.15;;;2.03;;
20794;SDS011;28087;-33.874;151.240;2023-08-21T11:49:12;5.47;;;2.30;;
20794;SDS011;28087;-33.874;151.240;2023-08-21T11:52:23;4.10;;;2.13;;
20794;SDS011;28087;-33.874;151.240;2023-08-21T11:55:39;5.00;;;2.03;;
20794;SDS011;28087;-33.874;151.240;2023-08-21T11:58:53;5.05;;;2.25;;
20794;SDS011;28087;-33.874;151.240;2023-08-21T12:02:13;4.70;;;2.38;;
20794;SDS011;28087;-33.874;151.240;2023-08-21T12:05:24;6.55;;;2.60;;
20794;SDS011;28087;-33.874;151.240;2023-08-21T12:08:36;5.68;;;2.53;;
20794;SDS011;28087;-33.874;151.240;2023-08-21T12:12:10;4.80;;;2.30;;
20794;SDS011;28087;-33.874;151.240;2023-08-21T12:15:24;5.70;;;2.58;;
20794;SDS011;28087;-33.874;151.240;2023-08-21T12:18:33;4.50;;;2.70;;
20794;SDS011;28087;-33.874;151.240;2023-08-21T12:21:43;6.47;;;3.05;;
20794;SDS011;28087;-33.874;151.240;2023-08-21T12:24:50;7.28;;;2.72;;
20794;SDS011;28087;-33.874;151.240;2023-08-21T12:28:01;4.70;;;2.40;;
20794;SDS011;28087;-33.874;151.240;2023-08-21T12:31:13;5.70;;;2.55;;
20794;SDS011;28087;-33.874;151.240;2023-08-21T12:34:23;4.82;;;2.42;;
20794;SDS011;28087;-33.874;151.240;2023-08-21T12:37:32;5.30;;;2.42;;
20794;SDS011;28087;-33.874;151.240;2023-08-21T12:40:53;8.13;;;2.65;;
20794;SDS011;28087;-33.874;151.240;2023-08-21T12:47:32;5.22;;;2.40;;
20794;SDS011;28087;-33.874;151.240;2023-08-21T12:50:46;6.18;;;2.70;;
20794;SDS011;28087;-33.874;151.240;2023-08-21T12:53:56;5.97;;;2.50;;
20794;SDS011;28087;-33.874;151.240;2023-08-21T12:57:05;7.28;;;2.65;;
20794;SDS011;28087;-33.874;151.240;2023-08-21T13:00:14;6.15;;;2.35;;
20794;SDS011;28087;-33.874;151.240;2023-08-21T13:03:24;7.82;;;2.70;;
20794;SDS011;28087;-33.874;151.240;2023-08-21T13:06:34;4.50;;;2.30;;
20794;SDS011;28087;-33.874;151.240;2023-08-21T13:09:40;4.90;;;2.53;;
20794;SDS011;28087;-33.874;151.240;2023-08-21T13:12:52;4.95;;;2.35;;
20794;SDS011;28087;-33.874;151.240;2023-08-21T13:16:03;4.20;;;2.35;;
20794;SDS011;28087;-33.874;151.240;2023-08-21T13:19:12;4.53;;;2.60;;
20794;SDS011;28087;-33.874;151.240;2023-08-21T13:22:25;6.55;;;2.63;;
20794;SDS011;28087;-33.874;151.240;2023-08-21T13:25:38;6.03;;;2.85;;
20794;SDS011;28087;-33.874;151.240;2023-08-21T13:28:52;4.68;;;2.63;;
20794;SDS011;28087;-33.874;151.240;2023-08-21T13:32:10;5.80;;;2.53;;
20794;SDS011;28087;-33.874;151.240;2023-08-21T13:35:22;4.70;;;2.47;;
20794;SDS011;28087;-33.874;151.240;2023-08-21T13:38:55;6.07;;;2.63;;
20794;SDS011;28087;-33.874;151.240;2023-08-21T13:42:12;4.72;;;2.80;;
20794;SDS011;28087;-33.874;151.240;2023-08-21T13:45:38;5.63;;;2.75;;
20794;SDS011;28087;-33.874;151.240;2023-08-21T13:48:50;5.82;;;2.90;;
20794;SDS011;28087;-33.874;151.240;2023-08-21T13:52:02;5.75;;;2.65;;
20794;SDS011;28087;-33.874;151.240;2023-08-21T13:55:17;6.82;;;2.80;;
20794;SDS011;28087;-33.874;151.240;2023-08-21T13:58:27;5.65;;;2.58;;
20794;SDS011;28087;-33.874;151.240;2023-08-21T14:01:46;5.15;;;2.60;;
20794;SDS011;28087;-33.874;151.240;2023-08-21T14:05:00;6.47;;;2.50;;
20794;SDS011;28087;-33.874;151.240;2023-08-21T14:08:18;5.47;;;2.58;;
20794;SDS011;28087;-33.874;151.240;2023-08-21T14:11:29;5.40;;;2.60;;
20794;SDS011;28087;-33.874;151.240;2023-08-21T14:14:39;5.93;;;2.58;;
20794;SDS011;28087;-33.874;151.240;2023-08-21T14:17:49;4.65;;;2.50;;
20794;SDS011;28087;-33.874;151.240;2023-08-21T14:21:01;5.70;;;2.72;;
20794;SDS011;28087;-33.874;151.240;2023-08-21T14:24:15;4.47;;;2.70;;
20794;SDS011;28087;-33.874;151.240;2023-08-21T14:27:27;4.72;;;2.35;;
20794;SDS011;28087;-33.874;151.240;2023-08-21T14:30:42;5.47;;;2.70;;
20794;SDS011;28087;-33.874;151.240;2023-08-21T14:33:51;5.85;;;2.63;;
20794;SDS011;28087;-33.874;151.240;2023-08-21T14:37:01;5.72;;;2.90;;
20794;SDS011;28087;-33.874;151.240;2023-08-21T14:40:12;5.57;;;3.30;;
20794;SDS011;28087;-33.874;151.240;2023-08-21T14:43:22;7.32;;;3.40;;
20794;SDS011;28087;-33.874;151.240;2023-08-21T14:46:32;7.22;;;3.47;;
20794;SDS011;28087;-33.874;151.240;2023-08-21T14:49:52;7.57;;;3.53;;
20794;SDS011;28087;-33.874;151.240;2023-08-21T14:53:02;7.22;;;3.00;;
20794;SDS011;28087;-33.874;151.240;2023-08-21T14:56:17;4.53;;;2.90;;
20794;SDS011;28087;-33.874;151.240;2023-08-21T14:59:31;7.03;;;3.10;;
20794;SDS011;28087;-33.874;151.240;2023-08-21T15:02:39;5.25;;;2.92;;
20794;SDS011;28087;-33.874;151.240;2023-08-21T15:05:55;5.13;;;2.83;;
20794;SDS011;28087;-33.874;151.240;2023-08-21T15:09:08;5.93;;;3.05;;
20794;SDS011;28087;-33.874;151.240;2023-08-21T15:12:19;6.43;;;3.00;;
20794;SDS011;28087;-33.874;151.240;2023-08-21T15:15:38;6.70;;;2.80;;
20794;SDS011;28087;-33.874;151.240;2023-08-21T15:18:53;6.03;;;3.10;;
20794;SDS011;28087;-33.874;151.240;2023-08-21T15:22:05;5.15;;;2.80;;
20794;SDS011;28087;-33.874;151.240;2023-08-21T15:25:18;5.15;;;3.05;;
20794;SDS011;28087;-33.874;151.240;2023-08-21T15:28:26;5.18;;;2.83;;
20794;SDS011;28087;-33.874;151.240;2023-08-21T15:31:36;8.00;;;2.92;;
20794;SDS011;28087;-33.874;151.240;2023-08-21T15:34:45;5.80;;;3.05;;
20794;SDS011;28087;-33.874;151.240;2023-08-21T15:38:02;4.93;;;2.83;;
20794;SDS011;28087;-33.874;151.240;2023-08-21T15:41:11;5.45;;;2.85;;
20794;SDS011;28087;-33.874;151.240;2023-08-21T15:44:24;6.95;;;3.08;;
20794;SDS011;28087;-33.874;151.240;2023-08-21T15:47:36;6.65;;;3.00;;
20794;SDS011;28087;-33.874;151.240;2023-08-21T15:50:46;4.78;;;3.10;;
20794;SDS011;28087;-33.874;151.240;2023-08-21T15:53:55;6.72;;;3.30;;
20794;SDS011;28087;-33.874;151.240;2023-08-21T15:57:04;6.70;;;3.10;;
20794;SDS011;28087;-33.874;151.240;2023-08-21T16:00:19;9.20;;;3.50;;
20794;SDS011;28087;-33.874;151.240;2023-08-21T16:03:32;5.90;;;3.55;;
20794;SDS011;28087;-33.874;151.240;2023-08-21T16:06:58;5.30;;;3.20;;
20794;SDS011;28087;-33.874;151.240;2023-08-21T16:10:07;5.07;;;3.05;;
20794;SDS011;28087;-33.874;151.240;2023-08-21T16:13:18;6.05;;;3.30;;
20794;SDS011;28087;-33.874;151.240;2023-08-21T16:16:27;7.00;;;3.35;;
20794;SDS011;28087;-33.874;151.240;2023-08-21T16:19:41;7.07;;;3.50;;
20794;SDS011;28087;-33.874;151.240;2023-08-21T16:22:48;6.78;;;3.53;;
20794;SDS011;28087;-33.874;151.240;2023-08-21T16:26:07;6.20;;;3.05;;
20794;SDS011;28087;-33.874;151.240;2023-08-21T16:29:15;6.78;;;3.20;;
20794;SDS011;28087;-33.874;151.240;2023-08-21T16:32:32;6.30;;;3.05;;
20794;SDS011;28087;-33.874;151.240;2023-08-21T16:35:44;6.10;;;3.10;;
20794;SDS011;28087;-33.874;151.240;2023-08-21T16:38:53;6.32;;;3.10;;
20794;SDS011;28087;-33.874;151.240;2023-08-21T16:42:01;7.28;;;3.20;;
20794;SDS011;28087;-33.874;151.240;2023-08-21T16:45:14;7.20;;;3.10;;
20794;SDS011;28087;-33.874;151.240;2023-08-21T16:48:27;7.97;;;3.05;;
20794;SDS011;28087;-33.874;151.240;2023-08-21T16:51:40;8.40;;;3.88;;
20794;SDS011;28087;-33.874;151.240;2023-08-21T16:54:57;6.70;;;4.18;;
20794;SDS011;28087;-33.874;151.240;2023-08-21T16:58:10;7.43;;;3.95;;
20794;SDS011;28087;-33.874;151.240;2023-08-21T17:01:16;7.43;;;3.92;;
20794;SDS011;28087;-33.874;151.240;2023-08-21T17:04:24;5.57;;;3.70;;
20794;SDS011;28087;-33.874;151.240;2023-08-21T17:07:34;6.72;;;3.40;;
20794;SDS011;28087;-33.874;151.240;2023-08-21T17:10:40;7.10;;;3.40;;
20794;SDS011;28087;-33.874;151.240;2023-08-21T17:13:51;6.78;;;3.40;;
20794;SDS011;28087;-33.874;151.240;2023-08-21T17:17:01;6.68;;;3.38;;
20794;SDS011;28087;-33.874;151.240;2023-08-21T17:20:13;6.80;;;3.85;;
20794;SDS011;28087;-33.874;151.240;2023-08-21T17:23:27;9.15;;;4.03;;
20794;SDS011;28087;-33.874;151.240;2023-08-21T17:26:36;8.27;;;3.75;;
20794;SDS011;28087;-33.874;151.240;2023-08-21T17:29:47;11.35;;;3.80;;
20794;SDS011;28087;-33.874;151.240;2023-08-21T17:32:56;8.88;;;3.83;;
20794;SDS011;28087;-33.874;151.240;2023-08-21T17:36:07;10.40;;;4.07;;
20794;SDS011;28087;-33.874;151.240;2023-08-21T17:39:20;6.22;;;3.92;;
20794;SDS011;28087;-33.874;151.240;2023-08-21T17:42:35;11.25;;;4.00;;
20794;SDS011;28087;-33.874;151.240;2023-08-21T17:45:45;7.80;;;3.85;;
20794;SDS011;28087;-33.874;151.240;2023-08-21T17:48:54;9.88;;;4.50;;
20794;SDS011;28087;-33.874;151.240;2023-08-21T17:52:06;8.82;;;3.80;;
20794;SDS011;28087;-33.874;151.240;2023-08-21T17:55:16;8.15;;;4.28;;
20794;SDS011;28087;-33.874;151.240;2023-08-21T17:58:50;6.65;;;3.90;;
20794;SDS011;28087;-33.874;151.240;2023-08-21T18:02:07;7.90;;;4.00;;
20794;SDS011;28087;-33.874;151.240;2023-08-21T18:05:21;7.78;;;3.70;;
20794;SDS011;28087;-33.874;151.240;2023-08-21T18:08:28;9.15;;;4.00;;
20794;SDS011;28087;-33.874;151.240;2023-08-21T18:11:38;7.40;;;4.10;;
20794;SDS011;28087;-33.874;151.240;2023-08-21T18:14:46;6.50;;;3.55;;
20794;SDS011;28087;-33.874;151.240;2023-08-21T18:17:52;7.22;;;3.90;;
20794;SDS011;28087;-33.874;151.240;2023-08-21T18:21:03;7.20;;;3.55;;
20794;SDS011;28087;-33.874;151.240;2023-08-21T18:24:14;6.85;;;3.78;;
20794;SDS011;28087;-33.874;151.240;2023-08-21T18:27:23;6.45;;;3.33;;
20794;SDS011;28087;-33.874;151.240;2023-08-21T18:30:34;5.35;;;3.30;;